Time;durP1;ratioP1;P1;durP2;ratioP2;P2;SDS_P1;SDS_P2;PMS_P1;PMS_P2;Temp;Humidity;BMP_temperature;BMP_pressure;BME280_temperature;BME280_humidity;BME280_pressure;Samples;Min_cycle;Max_cycle;Signal;HPM_P1;HPM_P2
2021/04/22 00:02:05;;;;;;;15.47;3.50;;;;;4.80;101830.00;;;;10492933;28;20190;-75
2021/04/22 00:07:08;;;;;;;12.13;3.17;;;;;4.80;101826.00;;;;10458486;28;20228;-75
2021/04/22 00:12:10;;;;;;;12.70;3.40;;;;;4.70;101830.00;;;;10475353;28;20213;-75
2021/04/22 00:17:11;;;;;;;14.47;4.30;;;;;4.60;101837.00;;;;10508699;28;20189;-75
2021/04/22 00:22:13;;;;;;;15.73;3.23;;;;;4.60;101844.00;;;;10473225;28;20871;-75
2021/04/22 00:27:14;;;;;;;12.57;3.77;;;;;4.50;101846.00;;;;10493269;28;20227;-75
2021/04/22 00:32:15;;;;;;;11.97;3.37;;;;;4.40;101844.00;;;;10457745;28;20276;-75
2021/04/22 00:37:17;;;;;;;16.20;3.43;;;;;4.30;101846.00;;;;10473513;28;20264;-75
2021/04/22 00:42:19;;;;;;;14.00;3.50;;;;;4.30;101849.00;;;;10474174;28;20197;-75
2021/04/22 00:47:20;;;;;;;11.37;3.43;;;;;4.10;101847.00;;;;10489864;28;20197;-75
2021/04/22 00:52:23;;;;;;;13.60;3.00;;;;;4.10;101858.00;;;;10463208;28;20213;-75
2021/04/22 00:57:25;;;;;;;16.50;3.33;;;;;4.00;101852.00;;;;10456026;28;20738;-75
2021/04/22 01:02:26;;;;;;;17.70;4.10;;;;;3.90;101851.00;;;;10507350;28;20247;-75
2021/04/22 01:07:27;;;;;;;11.83;3.37;;;;;3.80;101873.00;;;;10490207;28;20248;-75
2021/04/22 01:12:29;;;;;;;13.23;3.37;;;;;3.70;101861.00;;;;10470877;28;20272;-75
2021/04/22 01:17:33;;;;;;;15.97;3.17;;;;;3.70;101872.00;;;;10439484;28;20663;-75
2021/04/22 01:22:34;;;;;;;14.17;3.07;;;;;3.60;101878.00;;;;10488630;28;20706;-75
2021/04/22 01:27:39;;;;;;;16.20;3.33;;;;;3.50;101884.00;;;;10473180;28;20296;-75
2021/04/22 01:32:41;;;;;;;18.03;3.60;;;;;3.50;101885.00;;;;10455660;28;20213;-75
2021/04/22 01:37:43;;;;;;;18.40;3.43;;;;;3.40;101888.00;;;;10506181;28;20253;-75
2021/04/22 01:42:44;;;;;;;13.83;2.90;;;;;3.40;101895.00;;;;10488021;28;20197;-75
2021/04/22 01:47:46;;;;;;;21.43;3.70;;;;;3.40;101893.00;;;;10455792;28;20197;-75
2021/04/22 01:52:48;;;;;;;23.10;3.60;;;;;3.40;101893.00;;;;10489229;28;20236;-75
2021/04/22 01:57:50;;;;;;;15.90;3.50;;;;;3.40;101896.00;;;;10467623;28;20354;-75
2021/04/22 02:02:51;;;;;;;24.37;4.90;;;;;3.30;101898.00;;;;10471084;28;20280;-75
2021/04/22 02:07:53;;;;;;;16.13;3.90;;;;;3.20;101908.00;;;;10438189;28;20210;-75
2021/04/22 02:12:54;;;;;;;15.73;3.40;;;;;3.20;101910.00;;;;10453963;28;20218;-75
2021/04/22 02:17:56;;;;;;;14.87;3.87;;;;;3.10;101916.00;;;;10458607;28;20189;-75
2021/04/22 02:22:58;;;;;;;15.57;3.23;;;;;3.00;101920.00;;;;10462251;28;20194;-75
2021/04/22 02:28:00;;;;;;;14.83;3.67;;;;;2.90;101926.00;;;;10495393;28;20256;-75
2021/04/22 02:33:04;;;;;;;17.73;3.80;;;;;2.80;101926.00;;;;10431157;28;20243;-75
2021/04/22 02:38:08;;;;;;;14.50;3.07;;;;;2.70;101934.00;;;;10496560;28;20712;-75
2021/04/22 02:43:12;;;;;;;13.93;3.43;;;;;2.60;101925.00;;;;10476994;28;20205;-75
2021/04/22 02:48:14;;;;;;;12.67;3.33;;;;;2.60;101941.00;;;;10461807;28;20224;-75
2021/04/22 02:53:16;;;;;;;14.57;3.53;;;;;2.50;101944.00;;;;10493608;28;20245;-75
2021/04/22 02:58:18;;;;;;;14.93;4.43;;;;;2.50;101942.00;;;;10511105;28;20197;-75
2021/04/22 03:03:20;;;;;;;17.20;3.67;;;;;2.40;101941.00;;;;10510940;28;20247;-75
2021/04/22 03:08:22;;;;;;;13.60;4.90;;;;;2.30;101952.00;;;;10496300;28;20209;-75
2021/04/22 03:13:24;;;;;;;19.03;4.10;;;;;2.30;101951.00;;;;10477451;28;20245;-75
2021/04/22 03:18:25;;;;;;;16.17;3.33;;;;;2.30;101949.00;;;;10460878;28;20247;-75
2021/04/22 03:23:26;;;;;;;9.63;3.87;;;;;2.20;101953.00;;;;10495193;28;20244;-75
2021/04/22 03:28:27;;;;;;;18.73;4.97;;;;;2.20;101949.00;;;;10461419;28;20795;-75
2021/04/22 03:33:29;;;;;;;22.77;4.00;;;;;2.10;101959.00;;;;10477247;28;20744;-75
2021/04/22 03:38:30;;;;;;;11.53;3.40;;;;;2.10;101952.00;;;;10459309;28;20197;-75
2021/04/22 03:43:31;;;;;;;16.20;4.33;;;;;2.10;101951.00;;;;10509409;28;20198;-75
2021/04/22 03:48:33;;;;;;;17.67;4.30;;;;;2.10;101960.00;;;;10475314;28;20205;-75
2021/04/22 03:53:34;;;;;;;18.10;4.17;;;;;2.00;101962.00;;;;10460345;28;20626;-75
2021/04/22 03:58:36;;;;;;;15.50;4.27;;;;;2.00;101967.00;;;;10476178;28;20193;-75
2021/04/22 04:03:37;;;;;;;16.67;4.50;;;;;1.90;101962.00;;;;10476261;28;20240;-75
2021/04/22 04:08:38;;;;;;;12.97;4.07;;;;;1.90;101959.00;;;;10481967;28;20298;-75
2021/04/22 04:13:41;;;;;;;15.93;4.67;;;;;1.90;101964.00;;;;10490837;28;20210;-75
2021/04/22 04:18:42;;;;;;;22.50;4.57;;;;;1.90;101963.00;;;;10458556;28;20825;-75
2021/04/22 04:23:46;;;;;;;17.77;4.63;;;;;1.80;101969.00;;;;10509223;28;20620;-75
2021/04/22 04:28:47;;;;;;;14.60;3.70;;;;;1.80;101967.00;;;;10490411;28;20656;-75
2021/04/22 04:33:51;;;;;;;10.63;3.90;;;;;1.80;101978.00;;;;10490411;28;20213;-75
2021/04/22 04:38:53;;;;;;;20.23;5.13;;;;;1.80;101992.00;;;;10506917;28;20194;-75
2021/04/22 04:43:54;;;;;;;23.40;6.23;;;;;1.90;101988.00;;;;10457126;28;20236;-75
2021/04/22 04:48:55;;;;;;;19.87;4.93;;;;;1.90;102006.00;;;;10474318;28;20735;-75
2021/04/22 04:53:56;;;;;;;15.17;4.17;;;;;2.00;102018.00;;;;10474590;28;20267;-75
2021/04/22 04:58:58;;;;;;;21.60;4.83;;;;;2.00;102018.00;;;;10457709;28;20224;-75
2021/04/22 05:03:59;;;;;;;15.20;4.67;;;;;2.10;102020.00;;;;10458573;28;20280;-75
2021/04/22 05:09:01;;;;;;;15.83;4.53;;;;;2.20;102025.00;;;;10489853;28;20209;-75
2021/04/22 05:14:02;;;;;;;14.37;5.30;;;;;2.30;102026.00;;;;10490376;28;20674;-75
2021/04/22 05:19:04;;;;;;;17.67;4.90;;;;;2.40;102032.00;;;;10471872;28;20941;-75
2021/04/22 05:24:06;;;;;;;18.70;5.23;;;;;2.60;102025.00;;;;10474365;28;20197;-75
2021/04/22 05:29:07;;;;;;;24.93;5.27;;;;;2.80;102041.00;;;;10490296;28;20741;-75
2021/04/22 05:34:08;;;;;;;18.87;5.23;;;;;2.90;102033.00;;;;10459934;28;20217;-75
2021/04/22 05:39:10;;;;;;;17.27;5.40;;;;;3.00;102042.00;;;;10489567;28;20189;-75
2021/04/22 05:44:11;;;;;;;18.97;5.20;;;;;3.20;102048.00;;;;10473141;28;20197;-75
2021/04/22 05:49:13;;;;;;;21.77;5.53;;;;;3.60;102047.00;;;;10455803;28;20259;-75
2021/04/22 05:54:14;;;;;;;11.57;5.23;;;;;3.90;102049.00;;;;10489010;28;20225;-75
2021/04/22 05:59:16;;;;;;;18.23;5.80;;;;;4.30;102048.00;;;;10463948;28;20600;-76
2021/04/22 06:04:17;;;;;;;20.00;6.60;;;;;4.80;102056.00;;;;10496675;28;20213;-76
2021/04/22 06:09:18;;;;;;;25.23;5.77;;;;;5.50;102063.00;;;;10496105;28;20284;-75
2021/04/22 06:14:20;;;;;;;15.70;5.67;;;;;6.20;102064.00;;;;10480430;28;20292;-76
2021/04/22 06:19:21;;;;;;;18.80;5.37;;;;;7.10;102079.00;;;;10496876;28;20229;-76
2021/04/22 06:24:23;;;;;;;19.63;5.23;;;;;7.50;102083.00;;;;10495527;28;21004;-76
2021/04/22 06:29:24;;;;;;;19.00;5.40;;;;;7.90;102083.00;;;;10480130;28;20304;-76
2021/04/22 06:34:26;;;;;;;14.03;5.77;;;;;8.40;102088.00;;;;10510083;28;20288;-76
2021/04/22 06:39:28;;;;;;;19.83;5.27;;;;;8.60;102089.00;;;;10511832;28;20204;-76
2021/04/22 06:44:29;;;;;;;21.30;5.80;;;;;9.10;102089.00;;;;10511985;28;20649;-76
2021/04/22 06:49:30;;;;;;;16.83;5.47;;;;;9.30;102095.00;;;;10496456;28;20216;-76
2021/04/22 06:54:32;;;;;;;17.83;5.03;;;;;9.70;102103.00;;;;10498013;28;20221;-75
2021/04/22 06:59:33;;;;;;;21.17;5.40;;;;;9.90;102096.00;;;;10496233;28;20263;-75
2021/04/22 07:04:36;;;;;;;24.73;5.90;;;;;10.20;102096.00;;;;10512748;28;20977;-75
2021/04/22 07:09:38;;;;;;;22.90;5.57;;;;;10.60;102103.00;;;;10474546;28;20198;-75
2021/04/22 07:14:39;;;;;;;14.97;5.03;;;;;11.00;102105.00;;;;10466728;28;20280;-75
2021/04/22 07:19:40;;;;;;;12.67;4.47;;;;;11.30;102111.00;;;;10455708;28;20248;-75
2021/04/22 07:24:42;;;;;;;20.70;5.63;;;;;11.80;102112.00;;;;10439737;28;20748;-75
2021/04/22 07:29:47;;;;;;;15.93;5.17;;;;;12.00;102117.00;;;;10471860;28;20197;-75
2021/04/22 07:34:49;;;;;;;14.77;4.33;;;;;12.20;102121.00;;;;10493692;28;20217;-76
2021/04/22 07:39:50;;;;;;;22.13;5.57;;;;;12.00;102121.00;;;;10461150;28;20197;-75
2021/04/22 07:44:52;;;;;;;15.27;4.40;;;;;12.30;102113.00;;;;10458177;28;20248;-75
2021/04/22 07:49:53;;;;;;;14.27;4.57;;;;;12.70;102122.00;;;;10475115;28;20194;-75
2021/04/22 07:54:54;;;;;;;12.60;4.67;;;;;13.20;102120.00;;;;10461697;28;20236;-75
2021/04/22 07:59:56;;;;;;;12.87;4.37;;;;;13.10;102128.00;;;;10463515;28;20295;-75
2021/04/22 08:05:13;;;;;;;13.23;4.13;;;;;13.40;102119.00;;;;10471145;28;20244;-76
2021/04/22 08:10:29;;;;;;;15.57;4.00;;;;;13.70;102127.00;;;;10491101;28;20801;-75
2021/04/22 08:15:31;;;;;;;11.77;3.60;;;;;14.00;102129.00;;;;10457285;28;20217;-76
2021/04/22 08:20:34;;;;;;;16.67;4.33;;;;;14.20;102130.00;;;;10490039;28;20248;-76
2021/04/22 08:25:46;;;;;;;14.13;4.00;;;;;13.90;102129.00;;;;10443175;28;20210;-76
2021/04/22 08:30:55;;;;;;;13.57;3.93;;;;;14.00;102120.00;;;;10474901;28;20281;-76
2021/04/22 08:35:57;;;;;;;15.90;3.97;;;;;13.50;102129.00;;;;10469371;28;20225;-76
2021/04/22 08:40:58;;;;;;;11.20;4.17;;;;;13.70;102137.00;;;;10457593;28;20202;-75
2021/04/22 08:46:00;;;;;;;13.17;4.30;;;;;14.10;102141.00;;;;10497082;28;20220;-76
2021/04/22 08:51:05;;;;;;;14.23;4.37;;;;;14.20;102141.00;;;;10490937;28;20279;-76
2021/04/22 08:56:07;;;;;;;18.40;5.10;;;;;14.60;102140.00;;;;10482465;28;20564;-76
2021/04/22 09:01:11;;;;;;;23.77;5.23;;;;;14.70;102140.00;;;;10462478;28;20208;-76
2021/04/22 09:06:13;;;;;;;13.43;4.17;;;;;14.70;102140.00;;;;10471245;28;21022;-76
2021/04/22 09:11:17;;;;;;;12.17;4.80;;;;;15.20;102141.00;;;;10471570;28;20247;-76
2021/04/22 09:16:21;;;;;;;13.77;4.27;;;;;15.40;102143.00;;;;10473826;28;20197;-76
2021/04/22 09:21:29;;;;;;;13.37;4.27;;;;;15.80;102137.00;;;;10464241;28;20248;-76
2021/04/22 09:26:36;;;;;;;16.20;4.10;;;;;16.30;102131.00;;;;10438403;28;20221;-76
2021/04/22 09:31:38;;;;;;;11.83;3.90;;;;;16.40;102141.00;;;;10451085;28;20774;-76
2021/04/22 09:36:45;;;;;;;10.27;4.07;;;;;16.00;102143.00;;;;10426747;28;20948;-76
2021/04/22 09:41:48;;;;;;;13.87;4.33;;;;;16.40;102134.00;;;;10466405;28;20201;-77
2021/04/22 09:47:22;;;;;;;14.70;4.47;;;;;16.10;102136.00;;;;10487513;28;20201;-76
2021/04/22 09:52:33;;;;;;;12.83;4.57;;;;;16.30;102136.00;;;;10437134;28;20243;-76
2021/04/22 09:57:35;;;;;;;14.50;4.30;;;;;16.20;102130.00;;;;10458579;28;20556;-76
2021/04/22 10:02:45;;;;;;;10.40;3.93;;;;;16.50;102122.00;;;;10439742;28;20217;-76
2021/04/22 10:07:47;;;;;;;13.97;4.40;;;;;16.60;102117.00;;;;10408219;28;20221;-76
2021/04/22 10:12:49;;;;;;;15.10;4.10;;;;;17.20;102130.00;;;;10432590;28;20237;-76
2021/04/22 10:17:59;;;;;;;9.70;3.93;;;;;17.60;102125.00;;;;10472058;28;20202;-76
2021/04/22 10:23:01;;;;;;;10.60;4.10;;;;;17.50;102126.00;;;;10492646;28;20198;-76
2021/04/22 10:28:11;;;;;;;14.90;4.57;;;;;18.00;102128.00;;;;10474484;28;20197;-76
2021/04/22 10:33:12;;;;;;;10.70;4.07;;;;;17.80;102129.00;;;;10486443;28;20312;-76
2021/04/22 10:38:14;;;;;;;8.40;4.43;;;;;17.80;102134.00;;;;10475694;28;20201;-76
2021/04/22 10:43:25;;;;;;;14.03;4.17;;;;;18.30;102127.00;;;;10498204;28;20197;-76
2021/04/22 10:48:26;;;;;;;13.55;4.15;;;;;18.80;102121.00;;;;10482816;28;20209;-76
2021/04/22 10:53:28;;;;;;;11.43;3.55;;;;;18.80;102120.00;;;;10516211;28;20217;-76
2021/04/22 10:58:37;;;;;;;11.90;4.78;;;;;18.70;102122.00;;;;10485850;28;20233;-76
2021/04/22 11:03:49;;;;;;;11.85;4.28;;;;;18.90;102114.00;;;;10493526;28;20202;-76
2021/04/22 11:08:54;;;;;;;11.45;4.30;;;;;19.00;102116.00;;;;10515106;28;20209;-76
2021/04/22 11:14:11;;;;;;;9.88;4.30;;;;;19.00;102121.00;;;;10466141;28;20224;-76
2021/04/22 11:19:22;;;;;;;16.17;6.07;;;;;19.00;102121.00;;;;10473814;28;20230;-76
2021/04/22 11:24:33;;;;;;;18.60;5.13;;;;;18.90;102122.00;;;;10455236;28;21155;-76
2021/04/22 11:29:41;;;;;;;10.93;5.20;;;;;18.80;102125.00;;;;10464441;28;20204;-76
2021/04/22 11:34:43;;;;;;;13.18;5.88;;;;;18.70;102112.00;;;;10481385;28;20275;-76
2021/04/22 11:39:44;;;;;;;12.32;5.20;;;;;18.80;102111.00;;;;10480856;28;20196;-76
2021/04/22 11:44:50;;;;;;;9.20;4.38;;;;;18.70;102113.00;;;;10497881;28;20252;-76
2021/04/22 11:50:13;;;;;;;15.07;5.07;;;;;18.80;102111.00;;;;10460214;28;20209;-76
2021/04/22 11:55:22;;;;;;;12.95;4.78;;;;;18.90;102102.00;;;;10452301;28;20335;-76
2021/04/22 12:00:31;;;;;;;12.68;5.65;;;;;19.30;102104.00;;;;10434080;28;20206;-76
2021/04/22 12:05:34;;;;;;;12.10;5.07;;;;;19.80;102107.00;;;;10429689;28;20226;-76
2021/04/22 12:10:39;;;;;;;12.88;5.28;;;;;19.90;102096.00;;;;10452034;28;20483;-76
2021/04/22 12:15:45;;;;;;;16.13;4.50;;;;;19.70;102099.00;;;;10472985;28;20623;-76
2021/04/22 12:20:49;;;;;;;11.98;4.78;;;;;19.50;102104.00;;;;10474995;28;20271;-77
2021/04/22 12:25:53;;;;;;;11.40;4.70;;;;;19.50;102104.00;;;;10485087;28;20652;-76
2021/04/22 12:30:54;;;;;;;11.73;5.00;;;;;19.70;102099.00;;;;10415403;28;20206;-76
2021/04/22 12:35:59;;;;;;;14.93;5.53;;;;;19.30;102105.00;;;;10465853;28;20631;-76
2021/04/22 12:41:04;;;;;;;12.35;5.55;;;;;19.70;102103.00;;;;10440609;28;20586;-76
2021/04/22 12:46:16;;;;;;;11.27;4.55;;;;;19.40;102095.00;;;;10488163;28;20210;-76
2021/04/22 12:51:18;;;;;;;12.05;5.18;;;;;19.50;102106.00;;;;10467816;28;20190;-76
2021/04/22 12:56:19;;;;;;;13.00;4.70;;;;;19.50;102102.00;;;;10472346;28;20212;-75
2021/04/22 13:01:32;;;;;;;9.18;4.68;;;;;19.10;102091.00;;;;10455686;28;20213;-76
2021/04/22 13:06:34;;;;;;;11.68;5.63;;;;;19.30;102093.00;;;;10471920;28;20584;-76
2021/04/22 13:11:37;;;;;;;8.48;5.05;;;;;19.50;102090.00;;;;10422097;28;20233;-72
2021/04/22 13:16:50;;;;;;;11.45;5.13;;;;;20.00;102088.00;;;;10418946;28;20268;-72
2021/04/22 13:21:57;;;;;;;17.48;5.03;;;;;20.20;102082.00;;;;10426195;28;20297;-72
2021/04/22 13:27:07;;;;;;;12.40;5.05;;;;;20.30;102081.00;;;;10480000;28;20200;-72
2021/04/22 13:32:08;;;;;;;11.57;4.80;;;;;21.60;102080.00;;;;10457340;28;20225;-72
2021/04/22 13:37:11;;;;;;;13.25;5.13;;;;;23.20;102074.00;;;;10466821;28;20192;-72
2021/04/22 13:42:24;;;;;;;9.90;3.67;;;;;24.90;102074.00;;;;10437759;28;20216;-73
2021/04/22 13:47:26;;;;;;;11.30;4.50;;;;;25.40;102070.00;;;;10455768;28;20601;-73
2021/04/22 13:52:28;;;;;;;10.98;4.35;;;;;26.20;102071.00;;;;10466542;28;20308;-72
2021/04/22 13:57:40;;;;;;;10.05;4.60;;;;;26.30;102078.00;;;;10454873;28;20249;-72
2021/04/22 14:02:47;;;;;;;10.50;3.80;;;;;27.20;102060.00;;;;10468463;28;20205;-72
2021/04/22 14:07:51;;;;;;;13.30;5.03;;;;;26.80;102074.00;;;;10440974;28;20268;-73
2021/04/22 14:12:52;;;;;;;13.00;4.90;;;;;27.60;102073.00;;;;10445158;28;20225;-72
2021/04/22 14:17:53;;;;;;;12.75;4.65;;;;;27.40;102070.00;;;;10450617;28;20193;-72
2021/04/22 14:22:55;;;;;;;8.80;4.32;;;;;26.40;102078.00;;;;10456435;28;20204;-72
2021/04/22 14:27:56;;;;;;;14.48;4.70;;;;;26.40;102062.00;;;;10487485;28;20222;-73
2021/04/22 14:32:57;;;;;;;8.88;4.00;;;;;27.30;102065.00;;;;10456198;28;20632;-73
2021/04/22 14:37:59;;;;;;;8.75;4.50;;;;;29.30;102062.00;;;;10484590;28;20205;-72
2021/04/22 14:43:09;;;;;;;8.70;4.53;;;;;28.80;102059.00;;;;10470144;28;20287;-72
2021/04/22 14:48:11;;;;;;;12.48;5.07;;;;;29.00;102053.00;;;;10491774;28;20236;-72
2021/04/22 14:53:12;;;;;;;11.25;4.57;;;;;28.90;102063.00;;;;10471502;28;20580;-72
2021/04/22 14:58:14;;;;;;;9.10;4.97;;;;;29.10;102059.00;;;;10455764;28;20284;-72
2021/04/22 15:03:15;;;;;;;11.70;5.03;;;;;29.10;102045.00;;;;10449099;28;20249;-72
2021/04/22 15:08:18;;;;;;;8.73;4.82;;;;;28.90;102049.00;;;;10453989;28;20229;-72
2021/04/22 15:13:19;;;;;;;11.73;5.57;;;;;25.80;102060.00;;;;10487103;28;20228;-73
2021/04/22 15:18:20;;;;;;;8.60;4.28;;;;;23.00;102062.00;;;;10465471;28;20274;-72
2021/04/22 15:23:22;;;;;;;11.75;5.03;;;;;21.20;102055.00;;;;10448152;28;20193;-71
2021/04/22 15:28:23;;;;;;;12.32;5.13;;;;;19.90;102061.00;;;;10471747;28;20205;-72
2021/04/22 15:33:26;;;;;;;11.23;4.85;;;;;20.30;102057.00;;;;10476533;28;20245;-72
2021/04/22 15:38:27;;;;;;;10.63;4.85;;;;;20.30;102055.00;;;;10486667;28;20214;-71
2021/04/22 15:43:28;;;;;;;10.55;4.53;;;;;21.90;102033.00;;;;10461836;28;20208;-72
2021/04/22 15:48:31;;;;;;;11.13;4.97;;;;;24.40;102050.00;;;;10460651;28;20204;-72
2021/04/22 15:53:33;;;;;;;9.77;4.72;;;;;20.90;102052.00;;;;10471798;28;20871;-72
2021/04/22 15:58:34;;;;;;;11.75;5.10;;;;;18.90;102052.00;;;;10468682;28;20911;-71
2021/04/22 16:03:36;;;;;;;11.23;5.18;;;;;19.50;102048.00;;;;10436137;28;20237;-71
2021/04/22 16:08:38;;;;;;;11.75;5.85;;;;;19.10;102055.00;;;;10451411;28;20247;-72
2021/04/22 16:13:41;;;;;;;13.32;5.28;;;;;18.20;102055.00;;;;10449967;28;20213;-71
2021/04/22 16:18:43;;;;;;;14.10;5.85;;;;;17.50;102055.00;;;;10479303;28;20213;-71
2021/04/22 16:23:46;;;;;;;17.07;6.07;;;;;16.90;102054.00;;;;10475982;28;20280;-71
2021/04/22 16:28:48;;;;;;;10.50;5.37;;;;;16.30;102057.00;;;;10477580;28;20289;-71
2021/04/22 16:33:50;;;;;;;11.83;5.97;;;;;16.00;102068.00;;;;10508430;28;21020;-71
2021/04/22 16:38:53;;;;;;;12.33;5.50;;;;;15.50;102065.00;;;;10474206;28;20617;-71
2021/04/22 16:43:54;;;;;;;10.33;5.67;;;;;15.30;102064.00;;;;10420297;28;20256;-70
2021/04/22 16:49:00;;;;;;;17.50;6.53;;;;;15.10;102057.00;;;;10465451;28;20205;-70
2021/04/22 16:54:03;;;;;;;12.27;5.80;;;;;14.90;102058.00;;;;10508912;28;20257;-70
2021/04/22 16:59:07;;;;;;;18.23;6.30;;;;;14.70;102054.00;;;;10439843;28;20225;-70
2021/04/22 17:04:09;;;;;;;12.77;5.90;;;;;14.60;102069.00;;;;10483719;28;20655;-70
2021/04/22 17:09:12;;;;;;;11.00;5.20;;;;;14.50;102061.00;;;;10451252;28;20317;-70
2021/04/22 17:14:13;;;;;;;9.60;4.90;;;;;14.30;102071.00;;;;10463636;28;20307;-72
2021/04/22 17:19:15;;;;;;;16.63;9.53;;;;;14.20;102058.00;;;;10432376;28;20201;-70
2021/04/22 17:24:17;;;;;;;15.20;6.40;;;;;14.10;102065.00;;;;10467973;28;20236;-71
2021/04/22 17:29:21;;;;;;;11.83;5.80;;;;;13.90;102061.00;;;;10478869;28;20258;-71
2021/04/22 17:34:24;;;;;;;11.07;5.70;;;;;13.70;102064.00;;;;10485576;28;20671;-71
2021/04/22 17:39:26;;;;;;;13.13;5.70;;;;;13.60;102064.00;;;;10486456;28;20221;-70
2021/04/22 17:44:27;;;;;;;16.07;6.13;;;;;13.40;102063.00;;;;10453249;28;20213;-71
2021/04/22 17:49:29;;;;;;;11.60;5.00;;;;;13.30;102064.00;;;;10478104;28;20247;-71
2021/04/22 17:54:30;;;;;;;8.77;5.33;;;;;13.10;102070.00;;;;10474366;28;20666;-70
2021/04/22 17:59:32;;;;;;;10.90;5.40;;;;;13.00;102069.00;;;;10483490;28;22074;-71
2021/04/22 18:04:33;;;;;;;8.63;5.37;;;;;12.80;102076.00;;;;10474270;28;20220;-71
2021/04/22 18:09:34;;;;;;;10.07;5.07;;;;;12.70;102083.00;;;;10502095;28;20637;-70
2021/04/22 18:14:36;;;;;;;10.67;5.83;;;;;12.50;102084.00;;;;10480985;28;20241;-71
2021/04/22 18:19:37;;;;;;;11.00;5.20;;;;;12.40;102087.00;;;;10486882;28;20243;-71
2021/04/22 18:24:39;;;;;;;13.10;5.20;;;;;12.20;102092.00;;;;10464957;28;20193;-71
2021/04/22 18:29:41;;;;;;;12.77;5.30;;;;;12.00;102098.00;;;;10452127;28;20288;-71
2021/04/22 18:34:44;;;;;;;9.63;5.07;;;;;11.70;102105.00;;;;10467265;28;20213;-71
2021/04/22 18:39:45;;;;;;;14.43;5.30;;;;;11.50;102109.00;;;;10466190;28;20637;-70
2021/04/22 18:44:48;;;;;;;12.23;4.60;;;;;11.30;102111.00;;;;10482833;28;20708;-72
2021/04/22 18:49:50;;;;;;;11.00;4.90;;;;;11.10;102119.00;;;;10450085;28;20339;-71
2021/04/22 18:54:52;;;;;;;11.10;5.33;;;;;10.90;102115.00;;;;10449240;28;20224;-71
2021/04/22 18:59:53;;;;;;;13.63;5.50;;;;;10.70;102119.00;;;;10479329;28;20204;-71
2021/04/22 19:04:56;;;;;;;11.53;5.67;;;;;10.60;102128.00;;;;10475375;28;20676;-71
2021/04/22 19:09:57;;;;;;;10.63;5.40;;;;;10.50;102135.00;;;;10491903;28;20200;-71
2021/04/22 19:14:59;;;;;;;13.90;6.17;;;;;10.30;102138.00;;;;10474851;28;20225;-71
2021/04/22 19:20:05;;;;;;;14.73;5.50;;;;;10.10;102139.00;;;;10441686;28;20233;-71
2021/04/22 19:25:08;;;;;;;16.10;5.87;;;;;10.00;102157.00;;;;10474698;28;20214;-71
2021/04/22 19:30:21;;;;;;;10.57;5.53;;;;;9.80;102165.00;;;;10491282;28;20197;-71
2021/04/22 19:35:26;;;;;;;13.57;5.47;;;;;9.70;102172.00;;;;10455939;28;20217;-70
2021/04/22 19:40:29;;;;;;;16.27;6.03;;;;;9.60;102179.00;;;;10457175;28;20276;-72
2021/04/22 19:45:35;;;;;;;15.23;6.43;;;;;9.50;102188.00;;;;10459179;28;20197;-73
2021/04/22 19:50:40;;;;;;;18.00;5.50;;;;;9.40;102187.00;;;;10441381;28;20447;-72
2021/04/22 19:55:45;;;;;;;14.30;5.77;;;;;9.30;102196.00;;;;10457043;28;20241;-72
2021/04/22 20:00:46;;;;;;;15.30;5.60;;;;;9.30;102195.00;;;;10444312;28;20225;-72
2021/04/22 20:05:47;;;;;;;16.20;5.90;;;;;9.10;102192.00;;;;10490952;28;20652;-72
2021/04/22 20:10:49;;;;;;;12.10;5.87;;;;;9.00;102203.00;;;;10492268;28;20255;-73
2021/04/22 20:15:50;;;;;;;17.33;5.60;;;;;8.90;102204.00;;;;10472800;28;20245;-72
2021/04/22 20:20:53;;;;;;;17.30;5.90;;;;;8.80;102208.00;;;;10490703;28;20200;-72
2021/04/22 20:25:54;;;;;;;14.57;5.07;;;;;8.70;102212.00;;;;10515865;28;20259;-73
2021/04/22 20:30:56;;;;;;;11.63;5.10;;;;;8.60;102217.00;;;;10506706;28;20217;-72
2021/04/22 20:35:57;;;;;;;13.17;5.60;;;;;8.50;102230.00;;;;10496571;28;20214;-72
2021/04/22 20:41:01;;;;;;;9.97;4.90;;;;;8.40;102226.00;;;;10487274;28;20233;-72
2021/04/22 20:46:03;;;;;;;12.97;5.27;;;;;8.40;102221.00;;;;10464462;28;20588;-72
2021/04/22 20:51:04;;;;;;;12.20;5.53;;;;;8.30;102228.00;;;;10489960;28;20671;-72
2021/04/22 20:56:07;;;;;;;12.87;4.50;;;;;8.20;102223.00;;;;10469844;28;20221;-72
2021/04/22 21:01:08;;;;;;;9.10;4.47;;;;;8.10;102228.00;;;;10487320;28;21246;-72
2021/04/22 21:06:09;;;;;;;11.50;4.60;;;;;7.90;102228.00;;;;10486550;28;20635;-72
2021/04/22 21:11:12;;;;;;;14.90;5.80;;;;;7.80;102226.00;;;;10471651;28;20190;-72
2021/04/22 21:16:20;;;;;;;10.33;4.83;;;;;7.70;102224.00;;;;10473734;28;20212;-74
2021/04/22 21:21:22;;;;;;;9.93;4.90;;;;;7.60;102231.00;;;;10470822;28;20193;-72
2021/04/22 21:26:42;;;;;;;12.77;5.20;;;;;7.50;102233.00;;;;10452960;28;20267;-72
2021/04/22 21:31:45;;;;;;;14.13;5.70;;;;;7.40;102236.00;;;;10504982;28;20188;-72
2021/04/22 21:36:47;;;;;;;10.87;4.80;;;;;7.30;102237.00;;;;10471437;28;20884;-72
2021/04/22 21:41:51;;;;;;;11.33;4.60;;;;;7.20;102235.00;;;;10487787;28;20197;-72
2021/04/22 21:46:54;;;;;;;8.60;4.43;;;;;7.20;102244.00;;;;10455171;28;20202;-73
2021/04/22 21:51:55;;;;;;;10.00;5.00;;;;;7.10;102239.00;;;;10488349;28;20204;-72
2021/04/22 21:56:56;;;;;;;10.13;4.97;;;;;7.00;102245.00;;;;10493718;28;20290;-71
2021/04/22 22:01:59;;;;;;;13.77;5.40;;;;;6.90;102251.00;;;;10475464;28;20213;-72
2021/04/22 22:07:04;;;;;;;13.03;5.40;;;;;6.80;102252.00;;;;10494402;28;20316;-72
2021/04/22 22:12:09;;;;;;;12.73;4.53;;;;;6.60;102247.00;;;;10502952;28;20290;-71
2021/04/22 22:17:10;;;;;;;12.50;4.77;;;;;6.50;102255.00;;;;10470823;28;20568;-72
2021/04/22 22:22:12;;;;;;;12.97;4.77;;;;;6.50;102257.00;;;;10487518;28;20232;-72
2021/04/22 22:27:13;;;;;;;14.53;4.77;;;;;6.40;102264.00;;;;10446466;28;20202;-72
2021/04/22 22:32:15;;;;;;;11.90;5.17;;;;;6.40;102267.00;;;;10501130;28;20218;-72
2021/04/22 22:37:16;;;;;;;12.23;5.20;;;;;6.30;102265.00;;;;10472000;28;20251;-72
2021/04/22 22:42:18;;;;;;;14.33;4.63;;;;;6.20;102275.00;;;;10461565;28;20209;-72
2021/04/22 22:47:19;;;;;;;13.27;5.90;;;;;6.10;102282.00;;;;10493280;28;20232;-71
2021/04/22 22:52:25;;;;;;;8.30;4.83;;;;;6.00;102279.00;;;;10478446;28;20308;-72
2021/04/22 22:57:26;;;;;;;13.60;4.43;;;;;5.90;102286.00;;;;10493588;28;20255;-72
2021/04/22 23:02:28;;;;;;;13.10;5.00;;;;;5.80;102279.00;;;;10478157;28;20209;-71
2021/04/22 23:07:29;;;;;;;12.90;5.40;;;;;5.70;102280.00;;;;10495587;28;20214;-72
2021/04/22 23:12:30;;;;;;;14.37;6.63;;;;;5.50;102288.00;;;;10462920;28;20312;-72
2021/04/22 23:17:32;;;;;;;13.37;6.57;;;;;5.40;102293.00;;;;10494898;28;20774;-72
2021/04/22 23:22:33;;;;;;;16.37;5.97;;;;;5.30;102297.00;;;;10477568;28;20649;-71
2021/04/22 23:27:35;;;;;;;12.17;5.07;;;;;5.20;102302.00;;;;10469264;28;20206;-71
2021/04/22 23:32:38;;;;;;;12.60;5.30;;;;;5.20;102301.00;;;;10460000;28;20918;-71
2021/04/22 23:37:41;;;;;;;10.40;4.80;;;;;5.10;102301.00;;;;10402404;28;20205;-72
2021/04/22 23:42:46;;;;;;;10.00;4.97;;;;;5.10;102292.00;;;;10461686;28;20204;-72
2021/04/22 23:47:48;;;;;;;12.47;4.40;;;;;5.00;102290.00;;;;10476166;28;20197;-72
2021/04/22 23:52:50;;;;;;;10.97;4.70;;;;;4.90;102300.00;;;;10459242;28;20220;-71
2021/04/22 23:57:51;;;;;;;13.00;4.73;;;;;4.80;102292.00;;;;10475005;28;20198;-71
